Time;durP1;ratioP1;P1;durP2;ratioP2;P2;SDS_P1;SDS_P2;PMS_P1;PMS_P2;Temp;Humidity;BMP_temperature;BMP_pressure;BME280_temperature;BME280_humidity;BME280_pressure;Samples;Min_cycle;Max_cycle;Signal;HPM_P1;HPM_P2
2022/12/14 00:01:07;;;;;;;66.85;25.27;;;-2.40;75.00;;;;;;4208977;28;20158;-84
2022/12/14 00:03:27;;;;;;;72.72;24.15;;;-2.40;75.00;;;;;;4213383;28;20043;-84
2022/12/14 00:05:47;;;;;;;65.85;24.17;;;-2.40;75.00;;;;;;4217363;28;20035;-84
2022/12/14 00:08:07;;;;;;;63.30;23.42;;;-2.40;75.00;;;;;;4210107;28;20093;-84
2022/12/14 00:10:27;;;;;;;65.18;23.75;;;-2.40;74.90;;;;;;4210192;28;20058;-83
2022/12/14 00:12:46;;;;;;;69.60;23.80;;;-2.40;74.90;;;;;;4214191;28;20105;-84
2022/12/14 00:15:06;;;;;;;63.17;24.10;;;-2.40;74.90;;;;;;4211843;28;20082;-84
2022/12/14 00:17:25;;;;;;;66.03;24.90;;;-2.40;74.90;;;;;;4211454;28;20134;-84
2022/12/14 00:19:44;;;;;;;63.50;23.17;;;-2.40;75.00;;;;;;4216727;27;20395;-83
2022/12/14 00:22:03;;;;;;;69.10;23.35;;;-2.40;75.10;;;;;;4209613;28;20043;-84
2022/12/14 00:24:22;;;;;;;65.00;23.60;;;-2.40;75.10;;;;;;4214965;28;20050;-84
2022/12/14 00:26:42;;;;;;;62.47;23.50;;;-2.40;75.10;;;;;;4218593;27;20030;-84
2022/12/14 00:28:44;;;;;;;65.50;24.35;;;-2.40;75.10;;;;;;4217390;27;20110;-84
2022/12/14 00:30:45;;;;;;;60.50;24.67;;;-2.40;75.10;;;;;;4214691;27;20226;-83
2022/12/14 00:32:46;;;;;;;64.28;23.48;;;-2.40;75.00;;;;;;4219159;28;20028;-83
2022/12/14 00:34:47;;;;;;;60.08;22.83;;;-2.40;75.00;;;;;;4220698;28;20028;-84
2022/12/14 00:36:47;;;;;;;61.47;23.58;;;-2.40;74.90;;;;;;4217640;28;20052;-84
2022/12/14 00:38:48;;;;;;;63.63;23.60;;;-2.40;74.90;;;;;;4214726;27;20024;-84
2022/12/14 00:40:49;;;;;;;60.30;23.50;;;-2.40;74.90;;;;;;4212227;28;20117;-83
2022/12/14 00:42:50;;;;;;;69.10;24.38;;;-2.50;74.80;;;;;;4194616;28;20043;-84
2022/12/14 00:44:50;;;;;;;60.15;23.52;;;-2.50;74.70;;;;;;4217684;28;20024;-83
2022/12/14 00:46:51;;;;;;;68.18;24.15;;;-2.50;74.70;;;;;;4213861;28;20388;-83
2022/12/14 00:48:52;;;;;;;72.43;23.27;;;-2.50;74.60;;;;;;4207013;28;20036;-83
2022/12/14 00:50:54;;;;;;;62.33;22.80;;;-2.50;74.60;;;;;;4211051;28;20023;-84
2022/12/14 00:53:00;;;;;;;59.72;23.20;;;-2.50;74.50;;;;;;4208081;28;20089;-84
2022/12/14 00:55:01;;;;;;;61.20;22.10;;;-2.50;74.50;;;;;;4209174;27;20028;-84
2022/12/14 00:57:03;;;;;;;64.25;25.02;;;-2.50;74.50;;;;;;4200337;28;20438;-83
2022/12/14 00:59:04;;;;;;;59.92;23.85;;;-2.50;74.50;;;;;;4205932;28;20028;-84
2022/12/14 01:01:12;;;;;;;58.85;22.48;;;-2.50;74.50;;;;;;4208053;27;20176;-83
2022/12/14 01:03:33;;;;;;;65.78;24.45;;;-2.50;74.40;;;;;;4210346;28;20407;-84
2022/12/14 01:05:53;;;;;;;64.97;23.77;;;-2.50;74.40;;;;;;4210221;28;20062;-83
2022/12/14 01:08:14;;;;;;;60.67;22.73;;;-2.50;74.40;;;;;;4198049;28;20028;-84
2022/12/14 01:10:39;;;;;;;62.75;23.58;;;-2.50;74.40;;;;;;4205230;28;20032;-84
2022/12/14 01:12:59;;;;;;;59.17;22.90;;;-2.50;74.40;;;;;;4206706;28;20115;-84
2022/12/14 01:15:20;;;;;;;63.53;23.38;;;-2.60;74.20;;;;;;4206813;27;20032;-84
2022/12/14 01:17:41;;;;;;;66.57;23.55;;;-2.60;74.20;;;;;;4207436;28;20051;-84
2022/12/14 01:20:02;;;;;;;59.90;22.67;;;-2.60;74.00;;;;;;4206180;28;20064;-83
2022/12/14 01:22:22;;;;;;;62.85;22.55;;;-2.60;74.00;;;;;;4211013;28;21115;-83
2022/12/14 01:24:43;;;;;;;57.15;21.98;;;-2.60;73.80;;;;;;4211498;28;20731;-84
2022/12/14 01:27:04;;;;;;;56.05;22.88;;;-2.60;73.80;;;;;;4206187;28;20023;-85
2022/12/14 01:29:25;;;;;;;57.63;22.23;;;-2.70;73.70;;;;;;4209632;28;20031;-84
2022/12/14 01:31:45;;;;;;;62.10;23.60;;;-2.70;73.70;;;;;;4207966;28;20031;-84
2022/12/14 01:34:07;;;;;;;59.58;22.13;;;-2.70;73.60;;;;;;4213695;28;20142;-84
2022/12/14 01:36:11;;;;;;;51.75;21.63;;;-2.70;73.60;;;;;;4208722;28;20036;-84
2022/12/14 01:38:11;;;;;;;62.63;23.80;;;-2.70;73.50;;;;;;4213750;28;20492;-84
2022/12/14 01:40:12;;;;;;;56.28;23.83;;;-2.80;73.40;;;;;;4210346;28;20028;-85
2022/12/14 01:42:14;;;;;;;59.58;22.90;;;-2.80;73.40;;;;;;4204707;28;20028;-85
2022/12/14 01:44:14;;;;;;;58.78;24.10;;;-2.80;73.50;;;;;;4211600;28;20016;-85
2022/12/14 01:46:42;;;;;;;56.70;22.95;;;-2.80;73.50;;;;;;4206465;28;20424;-85
2022/12/14 01:48:45;;;;;;;58.83;22.80;;;-2.90;73.40;;;;;;4211337;28;20015;-85
2022/12/14 01:50:46;;;;;;;62.30;23.73;;;-2.90;73.50;;;;;;4208606;28;20016;-85
2022/12/14 01:52:50;;;;;;;62.33;23.25;;;-2.90;73.50;;;;;;4208284;28;20488;-84
2022/12/14 01:54:59;;;;;;;56.85;22.80;;;-2.90;73.50;;;;;;4213233;28;20028;-85
2022/12/14 01:57:00;;;;;;;59.03;23.30;;;-2.90;73.60;;;;;;4198904;28;20032;-83
2022/12/14 01:59:04;;;;;;;59.47;23.33;;;-2.90;73.60;;;;;;4205903;28;20548;-84
2022/12/14 02:01:05;;;;;;;57.90;23.73;;;-2.90;73.70;;;;;;4218661;28;20541;-84
2022/12/14 02:03:08;;;;;;;53.53;23.27;;;-3.00;73.60;;;;;;4209741;28;20028;-85
2022/12/14 02:05:11;;;;;;;56.00;23.48;;;-3.00;73.60;;;;;;4210216;28;20035;-84
2022/12/14 02:07:14;;;;;;;56.65;23.65;;;-3.00;73.60;;;;;;4218526;28;20514;-85
2022/12/14 02:09:20;;;;;;;50.45;22.88;;;-3.00;73.50;;;;;;4208944;28;20471;-84
2022/12/14 02:11:34;;;;;;;56.50;24.02;;;-3.00;73.50;;;;;;4213130;28;20481;-85
2022/12/14 02:13:40;;;;;;;54.72;22.73;;;-3.00;73.50;;;;;;4211832;28;20024;-84
2022/12/14 02:15:41;;;;;;;49.33;20.20;;;-3.10;73.50;;;;;;4217101;28;20089;-84
2022/12/14 02:17:44;;;;;;;50.22;21.20;;;-3.10;73.50;;;;;;4211695;28;20023;-84
2022/12/14 02:19:48;;;;;;;;;;;-3.10;73.50;;;;;;4211402;27;20105;-84
2022/12/14 02:22:22;;;;;;;49.63;19.67;;;-3.10;73.50;;;;;;4216788;27;19950;-84
2022/12/14 02:24:42;;;;;;;52.58;22.75;;;-3.10;73.40;;;;;;4213731;28;20079;-84
2022/12/14 02:27:25;;;;;;;49.75;21.67;;;-3.10;73.30;;;;;;4212869;28;20353;-84
2022/12/14 02:29:58;;;;;;;54.45;22.63;;;-3.10;73.20;;;;;;4213092;28;20023;-85
2022/12/14 02:32:47;;;;;;;53.40;22.58;;;-3.10;73.20;;;;;;4208916;28;20528;-84
2022/12/14 02:35:32;;;;;;;52.38;22.77;;;-3.20;73.10;;;;;;4212711;28;20027;-84
2022/12/14 02:38:11;;;;;;;50.92;20.98;;;-3.20;73.10;;;;;;4210992;28;20390;-84
2022/12/14 02:40:56;;;;;;;53.00;22.33;;;-3.30;73.40;;;;;;4212114;28;20027;-84
2022/12/14 02:43:19;;;;;;;49.40;21.05;;;-3.30;73.00;;;;;;4218209;28;20511;-84
2022/12/14 02:45:42;;;;;;;49.92;21.75;;;-3.30;73.00;;;;;;4209258;28;20157;-84
2022/12/14 02:48:21;;;;;;;52.25;21.00;;;-3.40;73.00;;;;;;4214273;28;20497;-84
2022/12/14 02:51:15;;;;;;;55.00;22.20;;;-3.40;73.00;;;;;;4211534;28;20028;-84
2022/12/14 02:53:47;;;;;;;52.50;21.20;;;-3.40;73.10;;;;;;4209419;28;20036;-84
2022/12/14 02:56:14;;;;;;;54.40;20.88;;;-3.40;73.20;;;;;;4225812;27;20042;-84
2022/12/14 02:58:37;;;;;;;51.65;22.85;;;-3.40;73.20;;;;;;4209821;27;20040;-85
2022/12/14 03:00:58;;;;;;;58.63;22.38;;;-3.50;73.20;;;;;;4207783;28;20035;-84
2022/12/14 03:03:19;;;;;;;56.42;22.27;;;-3.50;73.20;;;;;;4215398;28;20042;-83
2022/12/14 03:05:39;;;;;;;51.80;21.80;;;-3.60;73.20;;;;;;4206398;28;20024;-84
2022/12/14 03:08:08;;;;;;;55.63;22.08;;;-3.50;73.30;;;;;;4215397;27;20115;-84
2022/12/14 03:10:35;;;;;;;56.10;22.42;;;-3.60;73.30;;;;;;4207939;27;20080;-84
2022/12/14 03:13:13;;;;;;;54.20;22.27;;;-3.60;73.30;;;;;;4213600;28;20400;-84
2022/12/14 03:15:39;;;;;;;48.58;21.55;;;-3.60;73.30;;;;;;4210192;28;20024;-84
2022/12/14 03:18:02;;;;;;;51.20;22.23;;;-3.60;73.40;;;;;;4206319;28;20090;-84
2022/12/14 03:20:27;;;;;;;48.63;21.58;;;-3.60;73.40;;;;;;4214731;27;20020;-83
2022/12/14 03:22:58;;;;;;;58.17;23.50;;;-3.60;73.40;;;;;;4216402;28;20054;-83
2022/12/14 03:25:45;;;;;;;53.30;22.90;;;-3.70;73.30;;;;;;4209750;28;20055;-83
2022/12/14 03:28:31;;;;;;;52.60;21.77;;;-3.70;73.40;;;;;;4213809;28;20032;-84
2022/12/14 03:30:58;;;;;;;54.08;21.92;;;-3.60;73.40;;;;;;4212767;27;20028;-83
2022/12/14 03:33:23;;;;;;;54.47;22.38;;;-3.70;73.40;;;;;;4215281;27;20153;-83
2022/12/14 03:35:54;;;;;;;53.17;22.38;;;-3.70;73.40;;;;;;4215139;27;20028;-83
2022/12/14 03:38:49;;;;;;;49.97;21.35;;;-3.70;73.40;;;;;;4211307;28;20091;-83
2022/12/14 03:41:14;;;;;;;56.60;21.80;;;-3.80;73.40;;;;;;4181235;28;20039;-84
2022/12/14 03:43:51;;;;;;;60.90;21.80;;;-3.80;73.40;;;;;;4181409;28;20057;-84
2022/12/14 03:46:19;;;;;;;59.95;22.95;;;-3.80;73.40;;;;;;4186013;28;20036;-84
2022/12/14 03:48:48;;;;;;;50.45;22.88;;;-3.80;73.50;;;;;;4195299;28;20039;-84
2022/12/14 03:51:21;;;;;;;63.38;22.80;;;-3.80;73.50;;;;;;4184899;28;20114;-85
2022/12/14 03:53:45;;;;;;;52.83;22.67;;;-3.80;73.60;;;;;;4169777;28;20026;-85
2022/12/14 03:56:33;;;;;;;52.40;21.25;;;-3.90;73.60;;;;;;4178827;28;20036;-84
2022/12/14 03:59:12;;;;;;;60.42;21.73;;;-3.90;73.60;;;;;;4173961;28;20068;-85
2022/12/14 04:01:55;;;;;;;57.85;21.45;;;-3.90;73.60;;;;;;4180866;28;20436;-84
2022/12/14 04:04:31;;;;;;;48.47;21.15;;;-3.90;73.70;;;;;;4184664;28;20966;-84
2022/12/14 04:06:55;;;;;;;53.58;22.33;;;-3.90;73.70;;;;;;4182368;28;20608;-84
2022/12/14 04:09:27;;;;;;;54.05;21.65;;;-3.90;73.70;;;;;;4171096;28;20034;-84
2022/12/14 04:20:35;;;;;;;54.72;21.98;;;-3.90;73.90;;;;;;4210930;28;20038;-84
2022/12/14 04:23:01;;;;;;;53.72;22.73;;;-3.90;74.80;;;;;;4209291;28;20439;-84
2022/12/14 04:29:55;;;;;;;55.05;22.75;;;-3.90;74.20;;;;;;4214733;27;20128;-83
2022/12/14 04:30:52;;;;;;;51.17;21.98;;;-3.90;74.50;;;;;;4207468;28;20507;-86
2022/12/14 04:33:45;;;;;;;61.53;23.10;;;-3.90;74.70;;;;;;4215310;28;20032;-83
2022/12/14 04:35:32;;;;;;;55.17;20.90;;;-3.90;74.80;;;;;;4210453;27;21131;-83
2022/12/14 04:37:35;;;;;;;51.65;20.85;;;-3.90;74.90;;;;;;4207626;28;20035;-83
2022/12/14 04:40:04;;;;;;;49.65;20.77;;;-3.80;75.00;;;;;;4207238;27;20039;-83
2022/12/14 04:42:30;;;;;;;53.00;20.63;;;-3.80;75.00;;;;;;4210807;27;20035;-84
2022/12/14 04:44:54;;;;;;;53.97;21.70;;;-3.80;74.90;;;;;;4212420;27;20035;-83
2022/12/14 04:47:16;;;;;;;54.38;22.75;;;-3.70;74.80;;;;;;4213966;27;20126;-84
2022/12/14 04:49:52;;;;;;;50.78;22.13;;;-3.70;74.80;;;;;;4203889;27;20115;-83
2022/12/14 04:52:27;;;;;;;52.05;21.45;;;-3.70;74.60;;;;;;4195017;28;20040;-84
2022/12/14 04:55:08;;;;;;;55.53;22.35;;;-3.70;74.60;;;;;;4212812;27;20265;-83
2022/12/14 04:57:51;;;;;;;61.70;20.85;;;-3.70;74.40;;;;;;4209688;28;20028;-84
2022/12/14 05:00:13;;;;;;;65.22;23.67;;;-3.70;74.30;;;;;;4208711;28;20036;-84
2022/12/14 05:02:52;;;;;;;63.67;22.90;;;-3.70;74.30;;;;;;4205393;28;20474;-84
2022/12/14 05:05:27;;;;;;;55.40;22.75;;;-3.70;74.20;;;;;;4214157;28;20028;-83
2022/12/14 05:08:06;;;;;;;52.65;20.52;;;-3.70;74.20;;;;;;4210162;28;20032;-83
2022/12/14 05:10:39;;;;;;;53.40;21.10;;;-3.70;74.10;;;;;;4207619;28;20069;-83
2022/12/14 05:13:07;;;;;;;51.45;21.77;;;-3.70;74.50;;;;;;4208653;28;20036;-83
2022/12/14 05:15:39;;;;;;;54.50;21.92;;;-3.80;74.10;;;;;;4213305;28;20044;-83
2022/12/14 05:18:05;;;;;;;60.22;22.20;;;-3.80;74.10;;;;;;4220963;28;20069;-84
2022/12/14 05:20:26;;;;;;;52.58;22.13;;;-3.80;74.10;;;;;;4217736;28;20035;-83
2022/12/14 05:22:48;;;;;;;55.17;22.40;;;-3.80;74.20;;;;;;4214688;28;20036;-82
2022/12/14 05:25:09;;;;;;;56.50;22.95;;;-3.80;74.30;;;;;;4234009;28;20039;-82
2022/12/14 05:27:30;;;;;;;64.35;23.35;;;-3.80;74.20;;;;;;4226126;28;20039;-83
2022/12/14 05:29:51;;;;;;;54.92;20.98;;;-3.80;74.20;;;;;;4214893;28;20030;-83
2022/12/14 05:32:12;;;;;;;56.10;23.48;;;-3.80;74.30;;;;;;4215812;28;20270;-83
2022/12/14 05:34:33;;;;;;;56.28;22.38;;;-3.80;74.30;;;;;;4214478;28;20027;-83
2022/12/14 05:36:53;;;;;;;55.97;22.00;;;-3.90;74.20;;;;;;4218149;28;20039;-83
2022/12/14 05:39:15;;;;;;;54.97;22.70;;;-3.90;74.20;;;;;;4211473;28;20110;-83
2022/12/14 05:41:36;;;;;;;58.75;23.95;;;-3.90;74.20;;;;;;4209836;28;20043;-83
2022/12/14 05:43:56;;;;;;;58.30;22.83;;;-3.90;74.20;;;;;;4212007;28;20034;-83
2022/12/14 05:46:17;;;;;;;62.17;24.33;;;-3.90;74.20;;;;;;4212780;27;20118;-83
2022/12/14 05:48:38;;;;;;;59.10;23.10;;;-3.90;74.20;;;;;;4208578;28;20036;-82
2022/12/14 05:51:06;;;;;;;59.65;22.15;;;-3.90;74.20;;;;;;4219613;28;20066;-83
2022/12/14 05:53:27;;;;;;;62.83;24.88;;;-3.90;74.10;;;;;;4220130;27;20115;-82
2022/12/14 05:55:49;;;;;;;51.70;22.88;;;-3.90;74.10;;;;;;4218496;28;20252;-83
2022/12/14 05:58:09;;;;;;;65.53;28.15;;;-3.90;74.20;;;;;;4217761;28;20032;-84
2022/12/14 06:00:30;;;;;;;53.35;22.52;;;-3.90;74.20;;;;;;4220962;28;20129;-82
2022/12/14 06:02:54;;;;;;;61.67;23.67;;;-3.90;74.20;;;;;;4220157;28;20365;-83
2022/12/14 06:05:14;;;;;;;;;;;-3.90;74.20;;;;;;4220531;28;20023;-84
2022/12/14 06:07:35;;;;;;;56.35;21.98;;;-3.90;74.30;;;;;;4217386;28;19944;-82
2022/12/14 06:09:55;;;;;;;60.92;23.35;;;-3.90;74.10;;;;;;4217092;28;20020;-82
2022/12/14 06:12:16;;;;;;;56.47;20.70;;;-3.90;74.10;;;;;;4216644;28;20147;-82
2022/12/14 06:14:37;;;;;;;53.65;20.08;;;-3.90;74.00;;;;;;4213440;28;20051;-83
2022/12/14 06:16:58;;;;;;;57.63;23.48;;;-3.90;74.10;;;;;;4231779;27;20118;-82
2022/12/14 06:19:17;;;;;;;54.40;22.50;;;-3.90;74.30;;;;;;4219501;28;20565;-83
2022/12/14 06:21:38;;;;;;;48.90;19.67;;;-3.90;74.30;;;;;;4221262;27;20070;-83
2022/12/14 06:23:58;;;;;;;48.45;18.50;;;-3.90;74.40;;;;;;4218304;27;20039;-83
2022/12/14 06:26:17;;;;;;;48.80;18.60;;;-3.90;74.40;;;;;;4217415;28;20865;-84
2022/12/14 06:28:37;;;;;;;46.95;19.73;;;-3.90;74.50;;;;;;4214657;28;20225;-83
2022/12/14 06:30:56;;;;;;;56.50;20.60;;;-3.90;74.60;;;;;;4224293;28;20042;-83
2022/12/14 06:33:15;;;;;;;54.72;19.98;;;-3.80;74.80;;;;;;4223965;27;20194;-83
2022/12/14 06:35:34;;;;;;;54.40;20.88;;;-3.80;74.80;;;;;;4218720;28;20163;-83
2022/12/14 06:37:53;;;;;;;57.05;20.60;;;-3.80;74.90;;;;;;4222019;28;20066;-83
2022/12/14 06:40:13;;;;;;;52.67;20.17;;;-3.70;74.90;;;;;;4220056;28;20039;-82
2022/12/14 06:42:32;;;;;;;62.47;21.50;;;-3.80;74.70;;;;;;4222230;28;20035;-83
2022/12/14 06:44:51;;;;;;;65.32;22.45;;;-3.80;74.60;;;;;;4220708;27;20396;-83
2022/12/14 06:47:10;;;;;;;47.90;20.08;;;-3.80;74.50;;;;;;4219738;27;20023;-83
2022/12/14 06:49:29;;;;;;;53.15;21.02;;;-3.80;74.40;;;;;;4217916;28;20035;-83
2022/12/14 06:51:49;;;;;;;60.40;21.75;;;-3.70;74.30;;;;;;4225658;28;20759;-82
2022/12/14 06:54:10;;;;;;;60.35;22.40;;;-3.80;74.10;;;;;;4220001;27;20043;-84
2022/12/14 06:56:30;;;;;;;52.85;20.98;;;-3.80;74.00;;;;;;4213409;28;20105;-83
2022/12/14 06:58:49;;;;;;;51.40;20.50;;;-3.80;73.80;;;;;;4218217;28;20501;-82
2022/12/14 07:01:14;;;;;;;57.92;21.63;;;-3.90;73.70;;;;;;4214874;28;20039;-83
2022/12/14 07:03:34;;;;;;;56.88;20.98;;;-3.90;73.50;;;;;;4224988;28;20058;-83
2022/12/14 07:05:57;;;;;;;59.05;21.60;;;-3.90;73.50;;;;;;4220737;28;20057;-83
2022/12/14 07:08:16;;;;;;;59.55;21.63;;;-4.00;73.40;;;;;;4220761;27;20155;-83
2022/12/14 07:10:36;;;;;;;56.58;19.92;;;-4.00;73.40;;;;;;4226702;27;20466;-82
2022/12/14 07:12:55;;;;;;;51.42;20.23;;;-4.00;73.40;;;;;;4220630;28;20038;-83
2022/12/14 07:15:14;;;;;;;49.45;19.42;;;-4.00;73.40;;;;;;4223632;27;20043;-82
2022/12/14 07:17:35;;;;;;;51.90;19.48;;;-4.10;73.30;;;;;;4221916;27;20112;-83
2022/12/14 07:19:55;;;;;;;53.95;19.45;;;-4.10;73.20;;;;;;4224739;28;20046;-82
2022/12/14 07:22:14;;;;;;;47.85;18.83;;;-4.10;73.30;;;;;;4219486;28;20034;-82
2022/12/14 07:24:33;;;;;;;56.33;20.40;;;-4.20;73.20;;;;;;4229054;27;20121;-83
2022/12/14 07:26:55;;;;;;;50.35;19.25;;;-4.20;73.20;;;;;;4225157;28;20080;-82
2022/12/14 07:29:15;;;;;;;44.72;17.45;;;-4.20;73.30;;;;;;4214107;28;20077;-83
2022/12/14 07:31:35;;;;;;;49.13;20.30;;;-4.20;73.30;;;;;;4223235;28;20034;-82
2022/12/14 07:33:56;;;;;;;45.47;18.05;;;-4.30;73.00;;;;;;4223061;27;20062;-83
2022/12/14 07:36:18;;;;;;;47.70;18.42;;;-4.30;73.00;;;;;;4226425;27;20135;-83
2022/12/14 07:38:39;;;;;;;49.70;18.17;;;-4.30;73.20;;;;;;4215426;28;20043;-82
2022/12/14 07:41:08;;;;;;;42.55;17.77;;;-4.20;73.30;;;;;;4220529;28;20560;-83
2022/12/14 07:43:28;;;;;;;52.13;20.05;;;-4.30;73.50;;;;;;4218446;27;20196;-82
2022/12/14 07:45:47;;;;;;;45.85;17.55;;;-4.30;73.60;;;;;;4214096;28;20041;-82
2022/12/14 07:48:06;;;;;;;59.65;20.92;;;-4.30;73.70;;;;;;4214693;28;20077;-82
2022/12/14 07:50:25;;;;;;;45.80;17.45;;;-4.20;73.70;;;;;;4219663;27;20245;-83
2022/12/14 07:52:44;;;;;;;47.70;19.63;;;-4.20;73.70;;;;;;4219102;27;20053;-82
2022/12/14 07:55:04;;;;;;;48.85;19.67;;;-4.20;73.70;;;;;;4215539;28;20408;-82
2022/12/14 07:57:23;;;;;;;51.03;19.17;;;-4.20;73.60;;;;;;4222625;28;20030;-82
2022/12/14 07:59:42;;;;;;;49.65;18.38;;;-4.20;73.60;;;;;;4218695;28;20422;-83
2022/12/14 08:02:01;;;;;;;46.08;17.90;;;-4.20;73.70;;;;;;4218231;28;20076;-82
2022/12/14 08:04:20;;;;;;;48.10;17.88;;;-4.20;73.70;;;;;;4221726;28;20042;-83
2022/12/14 08:06:40;;;;;;;46.08;17.13;;;-4.20;73.70;;;;;;4220322;28;20078;-82
2022/12/14 08:09:00;;;;;;;51.63;18.85;;;-4.20;73.50;;;;;;4217567;28;20115;-82
2022/12/14 08:11:21;;;;;;;51.08;18.02;;;-4.20;73.50;;;;;;4215812;28;20031;-83
2022/12/14 08:13:42;;;;;;;49.67;18.80;;;-4.20;73.50;;;;;;4224531;27;20061;-82
2022/12/14 08:16:03;;;;;;;48.88;17.98;;;-4.20;73.50;;;;;;4219108;28;20058;-83
2022/12/14 08:18:22;;;;;;;41.38;16.15;;;-4.10;74.10;;;;;;4219101;28;20120;-82
2022/12/14 08:20:41;;;;;;;47.78;19.48;;;-4.20;73.20;;;;;;4217698;27;20642;-82
2022/12/14 08:23:00;;;;;;;43.85;18.38;;;-4.20;73.10;;;;;;4218075;28;20047;-83
2022/12/14 08:25:19;;;;;;;38.45;17.08;;;-4.20;73.00;;;;;;4219058;28;20672;-81
2022/12/14 08:27:38;;;;;;;56.60;20.48;;;-4.20;73.00;;;;;;4226742;28;20057;-82
2022/12/14 08:29:57;;;;;;;44.75;17.33;;;-4.20;73.00;;;;;;4215830;28;20035;-82
2022/12/14 08:32:17;;;;;;;50.80;18.33;;;-4.20;73.00;;;;;;4215307;28;20084;-83
2022/12/14 08:34:37;;;;;;;44.33;17.58;;;-4.20;73.20;;;;;;4219935;27;20388;-83
2022/12/14 08:36:56;;;;;;;47.92;17.13;;;-4.10;73.50;;;;;;4213530;27;20093;-82
2022/12/14 08:39:15;;;;;;;49.80;17.77;;;-4.10;73.90;;;;;;4220436;27;20104;-82
2022/12/14 08:41:34;;;;;;;46.10;17.05;;;-4.00;74.20;;;;;;4213475;28;20054;-83
2022/12/14 08:43:56;;;;;;;41.60;16.83;;;-4.00;74.60;;;;;;4217484;27;20039;-82
2022/12/14 08:46:15;;;;;;;46.45;17.52;;;-3.90;74.70;;;;;;4230498;28;20384;-82
2022/12/14 08:48:34;;;;;;;50.50;18.58;;;-3.80;75.00;;;;;;4216220;28;20070;-82
2022/12/14 08:50:53;;;;;;;49.03;17.80;;;-3.70;75.20;;;;;;4217631;27;20076;-82
2022/12/14 08:53:12;;;;;;;46.45;18.92;;;-3.60;75.30;;;;;;4218536;27;20070;-82
2022/12/14 08:55:31;;;;;;;48.63;19.15;;;-3.50;75.40;;;;;;4217361;28;20056;-82
2022/12/14 08:57:50;;;;;;;40.75;16.88;;;-3.40;75.10;;;;;;4215946;28;20097;-81
2022/12/14 09:00:10;;;;;;;44.80;16.75;;;-3.30;74.80;;;;;;4220175;28;20058;-83
2022/12/14 09:02:30;;;;;;;46.30;18.25;;;-3.30;74.70;;;;;;4217461;28;20043;-82
2022/12/14 09:04:49;;;;;;;48.08;18.13;;;-3.20;74.50;;;;;;4215073;28;20038;-82
2022/12/14 09:07:08;;;;;;;42.38;16.83;;;-3.20;74.20;;;;;;4217160;28;20061;-82
2022/12/14 09:09:27;;;;;;;44.10;16.98;;;-3.10;74.10;;;;;;4215110;28;20062;-83
2022/12/14 09:11:46;;;;;;;48.17;17.90;;;-3.10;74.00;;;;;;4222863;28;20089;-83
2022/12/14 09:14:06;;;;;;;42.70;17.10;;;-3.00;73.90;;;;;;4217420;28;20154;-83
2022/12/14 09:16:26;;;;;;;46.35;16.73;;;-3.00;74.00;;;;;;4221943;28;20119;-83
2022/12/14 09:18:46;;;;;;;38.00;16.42;;;-2.90;74.10;;;;;;4222112;28;20084;-82
2022/12/14 09:21:06;;;;;;;40.33;15.75;;;-2.90;74.30;;;;;;4226498;28;20035;-81
2022/12/14 09:23:27;;;;;;;42.75;16.63;;;-2.80;74.40;;;;;;4224481;28;20443;-83
2022/12/14 09:25:46;;;;;;;40.83;15.68;;;-2.70;74.60;;;;;;4226066;28;20146;-82
2022/12/14 09:28:05;;;;;;;38.85;15.90;;;-2.60;74.80;;;;;;4226856;28;20050;-83
2022/12/14 09:30:24;;;;;;;41.85;16.30;;;-2.50;74.90;;;;;;4224505;28;20526;-83
2022/12/14 09:32:45;;;;;;;38.92;14.40;;;-2.40;74.80;;;;;;4223973;28;20204;-83
2022/12/14 09:35:05;;;;;;;41.17;16.73;;;-2.30;74.60;;;;;;4217744;28;20126;-83
2022/12/14 09:37:24;;;;;;;43.28;15.45;;;-2.20;73.70;;;;;;4217183;28;20034;-84
2022/12/14 09:39:43;;;;;;;32.97;13.68;;;-2.10;73.10;;;;;;4215811;28;20046;-84
2022/12/14 09:42:15;;;;;;;42.42;15.95;;;-2.10;72.80;;;;;;4222674;28;20100;-83
2022/12/14 09:44:44;;;;;;;37.33;14.23;;;-2.00;72.70;;;;;;4218915;28;20084;-83
2022/12/14 09:47:26;;;;;;;34.10;15.13;;;-2.00;71.80;;;;;;4218882;28;20514;-83
2022/12/14 09:49:53;;;;;;;34.13;13.70;;;-1.90;71.90;;;;;;4215750;28;20514;-83
2022/12/14 09:52:16;;;;;;;32.17;13.18;;;-1.90;71.90;;;;;;4212364;28;20056;-83
2022/12/14 09:54:37;;;;;;;30.83;13.80;;;-1.80;71.50;;;;;;4218258;28;20026;-83
2022/12/14 09:57:09;;;;;;;33.72;13.77;;;-1.80;70.70;;;;;;4221264;28;20057;-83
2022/12/14 09:59:30;;;;;;;34.67;12.75;;;-1.80;70.40;;;;;;4217060;28;20039;-83
2022/12/14 10:02:14;;;;;;;34.03;14.05;;;-1.80;69.20;;;;;;4214618;28;20119;-83
2022/12/14 10:04:56;;;;;;;35.08;13.48;;;-1.80;69.70;;;;;;4212958;28;20085;-83
2022/12/14 10:07:29;;;;;;;32.83;13.13;;;-1.80;69.20;;;;;;4229256;27;20035;-84
2022/12/14 10:10:11;;;;;;;30.95;12.55;;;-1.70;70.20;;;;;;4219599;28;20043;-83
2022/12/14 10:12:46;;;;;;;30.92;13.15;;;-1.70;69.30;;;;;;4214764;28;20046;-83
2022/12/14 10:15:28;;;;;;;30.45;11.88;;;-1.60;69.60;;;;;;4219310;28;20050;-83
2022/12/14 10:17:56;;;;;;;29.27;11.30;;;-1.60;69.40;;;;;;4218510;28;20070;-83
2022/12/14 10:20:37;;;;;;;30.02;12.38;;;-1.50;69.50;;;;;;4217537;28;20050;-83
2022/12/14 10:22:57;;;;;;;25.00;11.13;;;-1.40;68.50;;;;;;4220025;28;20039;-84
2022/12/14 10:25:23;;;;;;;27.40;11.65;;;-1.30;68.50;;;;;;4222920;28;20422;-83
2022/12/14 10:27:50;;;;;;;30.58;11.30;;;-1.30;67.80;;;;;;4229993;28;20023;-82
2022/12/14 10:30:20;;;;;;;27.98;12.38;;;-1.30;66.90;;;;;;4216252;28;20058;-84
2022/12/14 10:32:44;;;;;;;27.10;11.77;;;-1.30;67.00;;;;;;4223946;27;20572;-83
2022/12/14 10:35:14;;;;;;;24.98;11.38;;;-1.20;67.10;;;;;;4219598;28;20038;-83
2022/12/14 10:37:41;;;;;;;24.75;10.18;;;-1.20;66.20;;;;;;4221446;28;20085;-83
2022/12/14 10:40:18;;;;;;;27.25;10.68;;;-1.20;66.00;;;;;;4219215;28;20274;-83
2022/12/14 10:43:07;;;;;;;22.67;10.02;;;-1.20;65.50;;;;;;4220498;28;20101;-83
2022/12/14 10:45:48;;;;;;;22.35;9.68;;;-1.20;65.50;;;;;;4217597;27;20031;-83
2022/12/14 10:48:17;;;;;;;24.60;9.82;;;-1.10;66.50;;;;;;4218029;28;20504;-84
2022/12/14 10:50:55;;;;;;;24.58;9.70;;;-1.10;67.00;;;;;;4218428;28;20164;-83
2022/12/14 10:53:19;;;;;;;24.98;10.23;;;-1.00;66.60;;;;;;4216899;28;20106;-83
2022/12/14 10:55:41;;;;;;;22.30;9.07;;;-0.90;66.80;;;;;;4217617;27;20100;-83
2022/12/14 10:58:01;;;;;;;24.02;9.10;;;-0.90;66.70;;;;;;4220433;28;20118;-83
2022/12/14 11:00:20;;;;;;;27.33;9.95;;;-0.90;66.70;;;;;;4217102;28;20097;-85
2022/12/14 11:02:42;;;;;;;20.27;9.20;;;-0.80;66.70;;;;;;4218353;27;20491;-84
2022/12/14 11:05:13;;;;;;;27.02;8.90;;;-0.70;66.60;;;;;;4220770;27;20104;-84
2022/12/14 11:07:32;;;;;;;21.30;8.93;;;-0.70;66.60;;;;;;4219351;28;20031;-84
2022/12/14 11:09:52;;;;;;;24.23;9.05;;;-0.70;65.70;;;;;;4216557;28;20027;-85
2022/12/14 11:12:24;;;;;;;25.23;9.60;;;-0.70;65.50;;;;;;4219293;28;20055;-84
2022/12/14 11:14:59;;;;;;;25.20;9.68;;;-0.70;64.50;;;;;;4217777;27;20264;-84
2022/12/14 11:17:32;;;;;;;23.10;8.77;;;-0.70;63.80;;;;;;4223373;28;20577;-84
2022/12/14 11:20:19;;;;;;;17.90;7.88;;;-0.70;63.20;;;;;;4220042;28;20411;-84
2022/12/14 11:22:46;;;;;;;20.42;8.32;;;-0.80;63.30;;;;;;4216851;28;20093;-84
2022/12/14 11:25:28;;;;;;;21.02;8.57;;;-0.80;63.50;;;;;;4217769;28;20137;-84
2022/12/14 11:27:47;;;;;;;21.48;9.27;;;-0.80;62.60;;;;;;4219488;28;20181;-84
2022/12/14 11:30:15;;;;;;;18.70;8.05;;;-0.80;62.50;;;;;;4215285;28;20111;-84
2022/12/14 11:32:34;;;;;;;19.42;8.80;;;-0.90;61.70;;;;;;4215660;28;20113;-84
2022/12/14 11:34:56;;;;;;;17.20;7.68;;;-0.90;61.90;;;;;;4217607;27;20123;-84
2022/12/14 11:37:28;;;;;;;19.73;8.35;;;-0.90;60.90;;;;;;4217179;27;20077;-84
2022/12/14 11:39:54;;;;;;;17.98;7.95;;;-0.90;61.70;;;;;;4222525;28;20119;-84
2022/12/14 11:42:17;;;;;;;20.38;8.82;;;-0.90;61.90;;;;;;4220332;28;20125;-84
2022/12/14 11:44:37;;;;;;;16.92;8.50;;;-0.80;62.30;;;;;;4219289;27;20039;-84
2022/12/14 11:46:56;;;;;;;19.42;8.18;;;-0.80;62.70;;;;;;4215160;27;20073;-84
2022/12/14 11:49:32;;;;;;;17.95;7.78;;;-0.80;62.60;;;;;;4214785;28;20439;-84
2022/12/14 11:52:00;;;;;;;18.08;8.02;;;-0.80;62.50;;;;;;4222004;28;20059;-84
2022/12/14 11:54:19;;;;;;;20.27;8.20;;;-0.70;62.80;;;;;;4217608;27;20108;-84
2022/12/14 11:56:38;;;;;;;19.23;8.23;;;-0.70;62.10;;;;;;4215408;27;20149;-85
2022/12/14 11:58:57;;;;;;;18.77;8.32;;;-0.60;62.20;;;;;;4218551;28;20035;-84
2022/12/14 12:01:23;;;;;;;18.42;7.55;;;-0.60;61.90;;;;;;4220286;28;20074;-83
2022/12/14 12:03:55;;;;;;;21.58;7.65;;;-0.50;59.80;;;;;;4221189;28;20043;-84
2022/12/14 12:06:23;;;;;;;20.27;8.05;;;-0.50;59.90;;;;;;4223205;27;20039;-84
2022/12/14 12:08:43;;;;;;;25.02;9.10;;;-0.50;60.30;;;;;;4231010;28;20031;-84
2022/12/14 12:11:14;;;;;;;47.08;16.15;;;-0.50;60.40;;;;;;4219266;28;20113;-84
2022/12/14 12:13:40;;;;;;;22.80;9.50;;;-0.50;60.20;;;;;;4219280;27;20079;-84